Time;durP1;ratioP1;P1;durP2;ratioP2;P2;SDS_P1;SDS_P2;PMS_P1;PMS_P2;Temp;Humidity;BMP_temperature;BMP_pressure;BME280_temperature;BME280_humidity;BME280_pressure;Samples;Min_cycle;Max_cycle;Signal;HPM_P1;HPM_P2
2022/12/18 05:31:32;;;;;;;9.73;8.43;;;-0.20;80.00;;;;;;5410562;23;20047;-86
2022/12/18 05:33:57;;;;;;;17.45;9.70;;;-0.20;79.80;;;;;;4975123;28;20030;-86
2022/12/18 05:36:23;;;;;;;17.40;10.80;;;-0.20;79.80;;;;;;4977043;28;20104;-86
2022/12/18 05:38:49;;;;;;;18.15;11.60;;;-0.20;79.80;;;;;;4976603;28;20031;-85
2022/12/18 05:41:15;;;;;;;12.75;8.18;;;-0.10;79.70;;;;;;4962033;28;20101;-86
2022/12/18 05:43:41;;;;;;;17.25;9.55;;;-0.20;80.00;;;;;;4956936;28;20027;-85
2022/12/18 05:46:24;;;;;;;9.23;6.10;;;-0.10;80.00;;;;;;4957291;28;20102;-86
2022/12/18 05:48:50;;;;;;;14.68;7.68;;;-0.10;79.80;;;;;;4958142;28;20028;-86
2022/12/18 05:51:19;;;;;;;14.25;9.30;;;-0.10;79.90;;;;;;4956923;28;20027;-86
2022/12/18 05:53:45;;;;;;;16.15;9.65;;;-0.20;80.10;;;;;;4957689;28;20031;-87
2022/12/18 05:56:17;;;;;;;18.83;10.23;;;-0.10;80.10;;;;;;4956355;28;20027;-86
2022/12/18 05:58:43;;;;;;;15.43;7.38;;;-0.10;80.40;;;;;;4958955;29;20467;-86
2022/12/18 06:01:13;;;;;;;8.77;6.53;;;0.00;80.20;;;;;;4973440;28;20023;-86
2022/12/18 06:03:39;;;;;;;14.68;9.57;;;-0.10;80.20;;;;;;4984435;28;20015;-85
2022/12/18 06:06:12;;;;;;;18.52;11.07;;;0.00;80.30;;;;;;4977600;28;20023;-86
2022/12/18 06:08:37;;;;;;;22.73;13.27;;;0.00;80.30;;;;;;4995784;28;20101;-86
2022/12/18 06:11:03;;;;;;;17.10;8.23;;;0.00;80.50;;;;;;4990522;28;20063;-87
2022/12/18 06:13:29;;;;;;;16.60;9.90;;;0.00;80.80;;;;;;4975248;28;20042;-86
2022/12/18 06:15:54;;;;;;;15.15;7.95;;;0.00;80.90;;;;;;4969453;28;20026;-86
2022/12/18 06:18:20;;;;;;;13.07;8.80;;;0.00;80.90;;;;;;4972012;28;20066;-87
2022/12/18 06:20:58;;;;;;;17.83;10.02;;;0.10;80.70;;;;;;4992684;28;20031;-86
2022/12/18 06:23:24;;;;;;;12.48;7.97;;;0.10;80.80;;;;;;4998202;28;20037;-86
2022/12/18 06:25:50;;;;;;;13.50;7.38;;;0.10;80.80;;;;;;4987557;28;20054;-87
2022/12/18 06:28:16;;;;;;;10.40;6.75;;;0.20;80.90;;;;;;4981302;28;20046;-86
2022/12/18 06:30:45;;;;;;;8.52;5.75;;;0.10;81.00;;;;;;4977806;28;20130;-86
2022/12/18 06:33:11;;;;;;;22.75;12.80;;;0.20;81.00;;;;;;4981516;28;20557;-86
2022/12/18 06:35:37;;;;;;;9.10;6.82;;;0.20;81.40;;;;;;4979846;28;20035;-85
2022/12/18 06:38:03;;;;;;;14.50;9.85;;;0.10;81.50;;;;;;4967592;28;20035;-85
2022/12/18 06:40:28;;;;;;;11.82;6.68;;;0.10;81.80;;;;;;4958909;28;20027;-86
2022/12/18 06:42:54;;;;;;;20.20;10.73;;;0.20;81.80;;;;;;4960085;28;20032;-85
2022/12/18 06:45:20;;;;;;;15.98;10.50;;;0.20;81.70;;;;;;4961496;28;20031;-85
2022/12/18 06:47:45;;;;;;;20.35;11.60;;;0.20;81.90;;;;;;4960150;29;20106;-87
2022/12/18 06:50:12;;;;;;;11.45;8.15;;;0.20;81.90;;;;;;4961751;28;20027;-86
2022/12/18 06:52:40;;;;;;;11.07;7.00;;;0.30;82.00;;;;;;4960833;28;20042;-86
2022/12/18 06:55:09;;;;;;;11.60;8.02;;;0.30;82.00;;;;;;4961054;28;20530;-86
2022/12/18 06:57:35;;;;;;;12.53;8.10;;;0.40;82.00;;;;;;4974309;28;20031;-86
2022/12/18 07:00:00;;;;;;;13.95;8.48;;;0.40;82.20;;;;;;4978811;28;20380;-86
2022/12/18 07:02:26;;;;;;;13.00;8.65;;;0.50;82.20;;;;;;4974463;28;20035;-86
2022/12/18 07:04:52;;;;;;;11.57;8.55;;;0.40;82.30;;;;;;4958642;29;20054;-86
2022/12/18 07:07:17;;;;;;;24.73;11.27;;;0.50;82.70;;;;;;4961034;28;20027;-85
2022/12/18 07:09:43;;;;;;;10.05;7.70;;;0.40;82.90;;;;;;4959581;28;20031;-85
2022/12/18 07:12:11;;;;;;;16.88;8.68;;;0.40;82.90;;;;;;4994662;28;20014;-86
2022/12/18 07:14:37;;;;;;;8.95;5.97;;;0.40;83.30;;;;;;4998082;28;20031;-85
2022/12/18 07:17:02;;;;;;;8.73;6.63;;;0.40;83.40;;;;;;4987564;28;20027;-85
2022/12/18 07:19:29;;;;;;;11.43;8.32;;;0.40;83.60;;;;;;4980059;28;20034;-84
2022/12/18 07:21:54;;;;;;;17.70;9.48;;;0.60;83.40;;;;;;4979029;28;20034;-78
2022/12/18 07:24:20;;;;;;;10.38;7.57;;;0.50;83.50;;;;;;4970769;28;20031;-80
2022/12/18 07:26:46;;;;;;;15.95;10.13;;;0.50;83.70;;;;;;4978149;28;20057;-79
2022/12/18 07:29:12;;;;;;;11.70;7.60;;;0.60;83.80;;;;;;4963530;28;20038;-78
2022/12/18 07:31:38;;;;;;;11.27;7.60;;;0.70;83.70;;;;;;4967333;28;20523;-82
2022/12/18 07:34:04;;;;;;;18.70;12.40;;;0.70;83.60;;;;;;4977591;28;20058;-81
2022/12/18 07:36:30;;;;;;;12.63;7.00;;;0.70;83.40;;;;;;4977113;28;20030;-81
2022/12/18 07:38:56;;;;;;;8.32;7.45;;;0.70;83.50;;;;;;4976963;28;20042;-84
2022/12/18 07:41:21;;;;;;;13.95;9.73;;;0.70;83.90;;;;;;4976976;28;20491;-78
2022/12/18 07:43:48;;;;;;;13.27;9.80;;;0.70;84.00;;;;;;4973885;28;20126;-76
2022/12/18 07:46:17;;;;;;;18.80;10.30;;;0.70;83.90;;;;;;4958945;28;20419;-77
2022/12/18 07:48:43;;;;;;;15.27;8.55;;;0.80;83.80;;;;;;4958616;28;20550;-79
2022/12/18 07:51:12;;;;;;;19.65;11.23;;;0.80;83.90;;;;;;4959082;28;20027;-76
2022/12/18 07:53:38;;;;;;;14.20;7.40;;;0.80;84.10;;;;;;4958722;29;20066;-79
2022/12/18 07:56:10;;;;;;;11.57;8.73;;;0.70;84.50;;;;;;4957635;28;20097;-79
2022/12/18 07:58:36;;;;;;;17.60;10.98;;;0.70;84.80;;;;;;4956833;28;20031;-76
2022/12/18 08:01:09;;;;;;;17.55;8.23;;;0.80;84.90;;;;;;4973866;28;20045;-76
2022/12/18 08:03:36;;;;;;;10.82;7.82;;;0.80;84.90;;;;;;4974781;28;20054;-76
2022/12/18 08:06:07;;;;;;;20.25;10.13;;;0.80;84.90;;;;;;4976152;28;20027;-76
2022/12/18 08:08:42;;;;;;;27.25;13.45;;;0.80;85.20;;;;;;4974987;28;20491;-79
2022/12/18 08:11:08;;;;;;;17.35;11.10;;;0.80;85.50;;;;;;4982635;28;20428;-76
2022/12/18 08:13:33;;;;;;;24.38;13.38;;;0.70;85.80;;;;;;4997288;28;20026;-76
2022/12/18 08:16:04;;;;;;;15.77;9.93;;;0.80;85.70;;;;;;4979769;28;20876;-76
2022/12/18 08:18:34;;;;;;;11.15;7.63;;;0.90;85.90;;;;;;4967418;28;20029;-76
2022/12/18 08:21:14;;;;;;;20.58;11.13;;;0.90;86.00;;;;;;4957089;28;20035;-76
2022/12/18 08:23:40;;;;;;;17.23;9.32;;;0.90;85.90;;;;;;4978998;28;20104;-77
2022/12/18 08:26:06;;;;;;;17.48;10.07;;;1.00;85.90;;;;;;4996866;28;20030;-76
2022/12/18 08:28:33;;;;;;;17.48;9.10;;;1.00;85.90;;;;;;4976804;28;20046;-77
2022/12/18 08:30:58;;;;;;;21.13;12.77;;;1.00;86.20;;;;;;4975983;28;20394;-76
2022/12/18 08:33:24;;;;;;;20.17;11.70;;;1.00;86.20;;;;;;4977524;28;20027;-76
2022/12/18 08:35:50;;;;;;;22.98;12.77;;;1.00;86.40;;;;;;4974434;28;20109;-77
2022/12/18 08:38:16;;;;;;;13.40;9.45;;;1.00;86.70;;;;;;4960293;28;20030;-76
2022/12/18 08:40:41;;;;;;;29.55;17.40;;;1.10;86.80;;;;;;4964374;28;20023;-79
2022/12/18 08:45:54;;;;;;;11.98;7.88;;;1.10;86.90;;;;;;4957950;28;20129;-75
2022/12/18 08:48:20;;;;;;;17.90;10.50;;;1.10;87.00;;;;;;4957993;28;20039;-77
2022/12/18 08:51:04;;;;;;;20.25;10.35;;;1.10;87.10;;;;;;4957772;29;20023;-77
2022/12/18 08:53:29;;;;;;;17.88;11.35;;;1.10;87.30;;;;;;4960124;28;20027;-78
2022/12/18 08:55:56;;;;;;;14.65;8.65;;;1.20;87.30;;;;;;4975671;28;20041;-77
2022/12/18 08:58:22;;;;;;;16.65;10.15;;;1.20;87.20;;;;;;4971444;28;20023;-76
2022/12/18 09:00:47;;;;;;;9.07;6.70;;;1.20;87.40;;;;;;4969821;28;20027;-76
2022/12/18 09:03:15;;;;;;;19.40;12.23;;;1.20;87.40;;;;;;4975758;28;20034;-77
2022/12/18 09:05:41;;;;;;;16.55;10.63;;;1.30;87.50;;;;;;4976675;28;20101;-77
2022/12/18 09:08:06;;;;;;;20.65;9.95;;;1.30;87.60;;;;;;4965458;28;20034;-77
2022/12/18 09:10:32;;;;;;;20.25;10.20;;;1.40;87.60;;;;;;4964536;28;20023;-77
2022/12/18 09:12:58;;;;;;;21.90;10.38;;;1.40;87.50;;;;;;4984172;28;20039;-77
2022/12/18 09:15:23;;;;;;;22.88;13.68;;;1.50;87.40;;;;;;4956258;28;20038;-77
2022/12/18 09:17:49;;;;;;;11.85;7.72;;;1.50;87.50;;;;;;4974782;28;20125;-77
2022/12/18 09:20:16;;;;;;;12.48;7.85;;;1.50;87.40;;;;;;4976428;28;20034;-77
2022/12/18 09:22:42;;;;;;;15.75;10.98;;;1.60;87.30;;;;;;4979312;28;20031;-78
2022/12/18 09:25:08;;;;;;;15.73;8.65;;;1.50;87.30;;;;;;4990228;28;20031;-78
2022/12/18 09:27:34;;;;;;;21.30;10.65;;;1.60;87.50;;;;;;4980458;28;20026;-77
2022/12/18 09:30:00;;;;;;;14.73;7.85;;;1.60;87.50;;;;;;4994610;28;20074;-82
2022/12/18 09:32:26;;;;;;;16.73;9.57;;;1.60;87.50;;;;;;4978757;28;20059;-76
2022/12/18 09:34:51;;;;;;;16.10;9.07;;;1.70;87.40;;;;;;4961045;28;20553;-78
2022/12/18 09:37:17;;;;;;;15.70;9.38;;;1.70;87.30;;;;;;4977552;28;20871;-78
2022/12/18 09:39:43;;;;;;;13.82;8.57;;;1.70;87.10;;;;;;4995670;28;20077;-77
2022/12/18 09:42:19;;;;;;;22.85;7.00;;;1.70;87.30;;;;;;4995356;28;20040;-78
2022/12/18 09:44:51;;;;;;;18.35;10.48;;;1.70;87.30;;;;;;4961858;28;20031;-78
2022/12/18 09:47:23;;;;;;;23.42;13.45;;;1.70;87.30;;;;;;4970234;28;20030;-78
2022/12/18 09:49:58;;;;;;;12.63;8.05;;;1.70;87.30;;;;;;4976270;28;20031;-77
2022/12/18 09:52:46;;;;;;;23.42;10.75;;;1.70;87.30;;;;;;4971253;28;21281;-77
2022/12/18 09:55:23;;;;;;;20.10;10.55;;;1.70;87.30;;;;;;4997645;28;20445;-76
2022/12/18 09:57:56;;;;;;;21.45;10.10;;;1.70;87.50;;;;;;4997590;28;20089;-76
2022/12/18 10:00:24;;;;;;;20.15;8.48;;;1.70;87.50;;;;;;5001086;28;20462;-77
2022/12/18 10:02:53;;;;;;;20.33;10.73;;;1.80;87.70;;;;;;4975707;28;20046;-77
2022/12/18 10:05:37;;;;;;;14.68;7.88;;;1.80;87.60;;;;;;4970639;28;20027;-76
2022/12/18 10:08:33;;;;;;;19.60;9.02;;;1.80;87.50;;;;;;4978221;28;20031;-76
2022/12/18 10:11:26;;;;;;;16.30;9.95;;;1.80;87.50;;;;;;4973572;28;20030;-76
2022/12/18 10:14:02;;;;;;;22.25;10.27;;;1.80;87.60;;;;;;4960473;28;20556;-77
2022/12/18 10:16:59;;;;;;;11.30;6.75;;;1.90;87.80;;;;;;4965842;28;20031;-75
2022/12/18 10:19:52;;;;;;;26.98;12.88;;;1.90;87.50;;;;;;4961029;28;20031;-83
2022/12/18 10:22:36;;;;;;;17.67;9.00;;;1.80;87.70;;;;;;4975538;28;20023;-80
2022/12/18 10:25:40;;;;;;;13.13;9.60;;;1.80;88.00;;;;;;4958634;29;20070;-80
2022/12/18 10:28:17;;;;;;;15.18;11.55;;;1.80;88.00;;;;;;4933510;28;20047;-76
2022/12/18 10:30:44;;;;;;;13.20;9.13;;;1.80;88.00;;;;;;4970542;28;20042;-80
2022/12/18 10:33:22;;;;;;;26.02;13.10;;;1.80;88.20;;;;;;4978103;28;20522;-78
2022/12/18 10:35:51;;;;;;;17.05;10.40;;;1.90;88.40;;;;;;4977404;28;20127;-80
2022/12/18 10:38:17;;;;;;;18.42;11.45;;;1.80;88.50;;;;;;4977340;28;20034;-81
2022/12/18 10:41:01;;;;;;;14.85;9.43;;;1.90;88.50;;;;;;4977785;28;20035;-76
2022/12/18 10:43:28;;;;;;;31.70;16.05;;;1.90;88.40;;;;;;4958607;29;20035;-76
2022/12/18 10:46:08;;;;;;;18.90;9.68;;;1.90;88.70;;;;;;4960308;28;20435;-77
2022/12/18 10:48:40;;;;;;;17.75;9.10;;;1.90;89.00;;;;;;4977901;28;20119;-75
2022/12/18 10:51:07;;;;;;;22.95;10.77;;;1.90;88.90;;;;;;4975689;28;20039;-76
2022/12/18 10:53:34;;;;;;;18.35;10.90;;;2.00;89.00;;;;;;4977674;28;20035;-75
2022/12/18 10:56:01;;;;;;;13.80;9.80;;;2.00;88.90;;;;;;4974855;28;20495;-76
2022/12/18 10:58:32;;;;;;;11.73;8.32;;;1.90;89.00;;;;;;4976715;28;20437;-85
2022/12/18 11:01:21;;;;;;;34.75;16.02;;;1.90;89.40;;;;;;4978711;28;20050;-78
2022/12/18 11:04:02;;;;;;;18.60;12.70;;;2.00;89.40;;;;;;4961795;28;20035;-76
2022/12/18 11:06:27;;;;;;;;;;;2.00;89.60;;;;;;4966948;28;20023;-76
2022/12/18 11:09:00;;;;;;;33.70;11.70;;;2.00;89.70;;;;;;4977100;28;19910;-75
2022/12/18 11:11:27;;;;;;;21.83;11.45;;;2.00;89.50;;;;;;4978611;28;20031;-77
2022/12/18 11:14:05;;;;;;;16.23;11.05;;;2.20;89.80;;;;;;4959572;28;20451;-76
2022/12/18 11:16:43;;;;;;;26.20;12.93;;;2.20;89.70;;;;;;4962632;28;20027;-82
2022/12/18 11:19:39;;;;;;;14.48;10.07;;;2.10;89.60;;;;;;4963193;28;20027;-76
2022/12/18 11:22:27;;;;;;;11.32;9.27;;;2.10;90.20;;;;;;4964256;28;20049;-76
2022/12/18 11:25:11;;;;;;;16.50;10.18;;;2.20;90.50;;;;;;4978202;28;20030;-76
2022/12/18 11:27:38;;;;;;;16.30;8.10;;;2.20;90.60;;;;;;4990724;28;20097;-76
2022/12/18 11:30:20;;;;;;;16.85;10.15;;;2.30;90.70;;;;;;4978279;28;20033;-75
2022/12/18 11:33:10;;;;;;;15.60;10.70;;;2.30;90.40;;;;;;4973628;28;20047;-77
2022/12/18 11:35:38;;;;;;;21.02;12.10;;;2.40;90.60;;;;;;4957647;28;20611;-78
2022/12/18 11:38:19;;;;;;;15.45;10.45;;;2.40;90.30;;;;;;4967406;28;20118;-77
2022/12/18 11:40:51;;;;;;;21.38;9.13;;;2.50;90.40;;;;;;4973371;28;20027;-76
2022/12/18 11:43:27;;;;;;;16.88;10.55;;;2.50;90.30;;;;;;4973851;28;20113;-76
2022/12/18 11:45:58;;;;;;;17.35;11.68;;;2.50;90.30;;;;;;4977870;28;20026;-77
2022/12/18 11:48:33;;;;;;;16.63;10.93;;;2.50;90.00;;;;;;4973104;28;20409;-76
2022/12/18 11:51:02;;;;;;;19.35;11.32;;;2.50;90.10;;;;;;4968295;28;20027;-76
2022/12/18 11:53:30;;;;;;;17.35;10.60;;;2.60;90.20;;;;;;4967708;28;20042;-76
2022/12/18 11:56:20;;;;;;;10.57;6.95;;;2.60;89.90;;;;;;4965208;28;20034;-74
2022/12/18 11:58:47;;;;;;;;;;;2.60;89.80;;;;;;4978212;28;20054;-75
2022/12/18 12:01:34;;;;;;;16.83;10.20;;;2.60;90.10;;;;;;4977058;28;19942;-76
2022/12/18 12:04:28;;;;;;;20.42;12.02;;;2.60;90.30;;;;;;4977621;28;20073;-76
2022/12/18 12:07:28;;;;;;;26.42;12.73;;;2.60;90.30;;;;;;4960799;28;20146;-77
2022/12/18 12:10:01;;;;;;;13.45;9.18;;;2.60;90.50;;;;;;4977557;28;20019;-75
2022/12/18 12:13:10;;;;;;;15.20;10.43;;;2.60;90.50;;;;;;4967211;28;20026;-75
2022/12/18 12:16:17;;;;;;;21.65;11.63;;;2.60;90.50;;;;;;4900894;29;20032;-75
2022/12/18 12:19:00;;;;;;;26.52;13.68;;;2.60;90.70;;;;;;4928573;29;20082;-74
2022/12/18 12:21:26;;;;;;;18.75;11.02;;;2.60;90.80;;;;;;4965560;28;20043;-78
2022/12/18 12:23:59;;;;;;;16.35;10.77;;;2.70;90.70;;;;;;4978298;28;20045;-76
2022/12/18 12:26:38;;;;;;;20.38;13.82;;;2.80;90.80;;;;;;4958227;29;20066;-82
2022/12/18 12:29:10;;;;;;;21.52;12.77;;;2.70;90.60;;;;;;4970832;28;20030;-77
2022/12/18 12:31:44;;;;;;;27.65;15.35;;;2.80;90.60;;;;;;4975619;28;20047;-78
2022/12/18 12:34:22;;;;;;;20.02;12.25;;;2.90;90.80;;;;;;4970570;28;20099;-78
2022/12/18 12:37:04;;;;;;;20.73;11.30;;;3.00;90.70;;;;;;4956088;29;20075;-76
2022/12/18 12:39:36;;;;;;;32.42;16.52;;;3.00;90.20;;;;;;4980698;28;20054;-78
2022/12/18 12:44:56;;;;;;;27.60;16.42;;;3.00;89.90;;;;;;4985790;28;20117;-77
2022/12/18 12:47:40;;;;;;;39.40;20.05;;;3.00;90.20;;;;;;4986224;28;20023;-77
2022/12/18 12:50:14;;;;;;;29.50;17.23;;;3.00;90.00;;;;;;4982161;28;20027;-77
2022/12/18 12:52:46;;;;;;;39.85;18.95;;;3.10;90.20;;;;;;4983674;28;20022;-77
2022/12/18 12:55:22;;;;;;;35.45;17.20;;;3.00;90.10;;;;;;4978861;28;20030;-77
2022/12/18 12:57:57;;;;;;;23.13;14.23;;;3.10;90.30;;;;;;4983458;28;20093;-77
2022/12/18 13:00:25;;;;;;;24.55;14.20;;;3.10;90.00;;;;;;4983171;28;20088;-77
2022/12/18 13:03:00;;;;;;;17.90;11.30;;;3.10;90.10;;;;;;4985233;28;20546;-77
2022/12/18 13:05:46;;;;;;;35.53;17.60;;;3.20;90.00;;;;;;4983485;28;20077;-77
2022/12/18 13:08:32;;;;;;;33.78;15.35;;;3.20;90.10;;;;;;4979212;28;20030;-77
2022/12/18 13:13:52;;;;;;;23.13;14.77;;;3.30;90.20;;;;;;4982975;28;20037;-78
2022/12/18 13:16:20;;;;;;;24.38;13.80;;;3.30;90.00;;;;;;4983133;28;20442;-78
2022/12/18 13:18:54;;;;;;;25.27;12.52;;;3.40;90.00;;;;;;4988474;28;20038;-78
2022/12/18 13:21:30;;;;;;;28.15;14.60;;;3.40;89.90;;;;;;4973181;28;20039;-77
2022/12/18 13:23:57;;;;;;;31.15;14.70;;;3.40;89.70;;;;;;4984133;28;20030;-78
2022/12/18 13:26:22;;;;;;;27.48;15.65;;;3.50;89.90;;;;;;4993748;28;20489;-78
2022/12/18 13:28:53;;;;;;;28.38;14.27;;;3.50;89.60;;;;;;4975104;28;20098;-77
2022/12/18 13:31:34;;;;;;;;;;;3.50;89.80;;;;;;4966020;28;20138;-78
2022/12/18 13:34:26;;;;;;;27.98;15.95;;;3.60;89.50;;;;;;4956057;28;19921;-83
2022/12/18 13:36:53;;;;;;;21.80;16.00;;;3.70;89.60;;;;;;4955706;28;20479;-76
2022/12/18 13:39:22;;;;;;;27.85;15.18;;;3.60;89.40;;;;;;4980679;28;20062;-76
2022/12/18 13:42:08;;;;;;;31.95;16.95;;;3.70;89.50;;;;;;4977937;28;20109;-76
2022/12/18 13:44:41;;;;;;;28.08;16.13;;;3.70;89.30;;;;;;4968111;28;20100;-76
2022/12/18 13:47:33;;;;;;;30.48;16.63;;;3.70;89.40;;;;;;4974028;28;20111;-76
2022/12/18 13:49:59;;;;;;;22.38;12.65;;;3.70;89.30;;;;;;4981576;28;20129;-76
2022/12/18 13:52:33;;;;;;;36.22;17.08;;;3.70;89.30;;;;;;4984640;28;20019;-76
2022/12/18 13:55:01;;;;;;;29.67;16.20;;;3.80;89.30;;;;;;4979403;28;20035;-76
2022/12/18 13:57:35;;;;;;;25.38;13.57;;;3.70;89.30;;;;;;4985463;28;20489;-77
2022/12/18 14:00:25;;;;;;;32.30;15.82;;;3.80;89.30;;;;;;4978833;28;20521;-76
2022/12/18 14:02:51;;;;;;;17.80;12.60;;;3.80;89.60;;;;;;4970532;28;20458;-76
2022/12/18 14:05:31;;;;;;;21.30;13.45;;;3.80;89.50;;;;;;4984614;28;20030;-75
2022/12/18 14:08:09;;;;;;;32.25;16.13;;;3.90;89.40;;;;;;4986204;28;20026;-76
2022/12/18 14:10:39;;;;;;;35.22;15.55;;;3.90;89.50;;;;;;4970735;28;20045;-76
2022/12/18 14:13:08;;;;;;;41.13;18.55;;;3.90;89.50;;;;;;4969128;28;20027;-76
2022/12/18 14:15:41;;;;;;;31.27;13.57;;;4.00;89.80;;;;;;4967746;28;20043;-76
2022/12/18 14:18:09;;;;;;;27.90;15.68;;;4.00;89.60;;;;;;4965898;28;20081;-76
2022/12/18 14:20:35;;;;;;;20.08;12.35;;;4.00;89.70;;;;;;4968053;28;20104;-80
2022/12/18 14:23:01;;;;;;;34.63;18.77;;;4.00;90.00;;;;;;4970823;28;20571;-76
2022/12/18 14:25:29;;;;;;;30.65;18.15;;;4.00;90.00;;;;;;4959472;28;20030;-76
2022/12/18 14:28:07;;;;;;;17.88;11.52;;;4.10;90.10;;;;;;4961122;28;20023;-77
2022/12/18 14:30:40;;;;;;;30.48;16.83;;;4.00;90.50;;;;;;4964278;28;20038;-77
2022/12/18 14:33:10;;;;;;;34.70;18.85;;;4.20;90.50;;;;;;4965066;28;20565;-77
2022/12/18 14:35:51;;;;;;;21.03;13.43;;;4.20;90.30;;;;;;4965254;28;20039;-76
2022/12/18 14:38:23;;;;;;;28.88;16.27;;;4.30;90.50;;;;;;4955174;28;20039;-76
2022/12/18 14:40:59;;;;;;;20.33;13.23;;;4.30;90.40;;;;;;4960190;28;20035;-76
2022/12/18 14:43:27;;;;;;;29.75;16.83;;;4.40;90.20;;;;;;4981016;28;20030;-77
2022/12/18 14:45:53;;;;;;;14.45;10.13;;;4.50;90.30;;;;;;4974482;28;20026;-76
2022/12/18 14:48:21;;;;;;;23.90;14.15;;;4.50;90.30;;;;;;4973622;28;20027;-78
2022/12/18 14:50:56;;;;;;;29.30;15.82;;;4.50;90.40;;;;;;4961097;28;20034;-78
2022/12/18 14:53:40;;;;;;;30.65;15.00;;;4.50;90.00;;;;;;4960842;28;20097;-78
2022/12/18 14:56:26;;;;;;;34.17;16.00;;;4.50;90.30;;;;;;4959823;29;20039;-78
2022/12/18 14:58:56;;;;;;;29.98;16.65;;;4.60;90.40;;;;;;4962272;28;20046;-78
2022/12/18 15:01:31;;;;;;;25.88;14.75;;;4.60;90.30;;;;;;4965406;28;20030;-78
2022/12/18 15:03:59;;;;;;;29.83;17.10;;;4.60;90.60;;;;;;4978495;28;20027;-78
2022/12/18 15:06:43;;;;;;;21.63;13.30;;;4.70;90.50;;;;;;4978189;28;20023;-78
2022/12/18 15:09:26;;;;;;;25.00;13.07;;;4.70;90.40;;;;;;4967593;28;20039;-78
2022/12/18 15:11:57;;;;;;;29.88;14.82;;;4.70;90.40;;;;;;4988191;28;20033;-78
2022/12/18 15:14:41;;;;;;;27.75;15.68;;;4.70;90.20;;;;;;4997077;28;20668;-78
2022/12/18 15:17:20;;;;;;;20.08;11.07;;;4.70;90.40;;;;;;4998320;28;20034;-78
2022/12/18 15:19:47;;;;;;;30.77;15.25;;;4.80;90.30;;;;;;4959334;28;20051;-78
2022/12/18 15:22:33;;;;;;;22.05;12.02;;;4.70;90.40;;;;;;4957544;28;20039;-78
2022/12/18 15:25:00;;;;;;;28.92;15.75;;;4.80;90.60;;;;;;4958849;29;20392;-78
2022/12/18 15:27:37;;;;;;;25.65;13.70;;;4.80;90.60;;;;;;4959213;28;20027;-77
2022/12/18 15:30:09;;;;;;;22.98;13.38;;;4.80;90.60;;;;;;4959280;29;20023;-78
2022/12/18 15:32:36;;;;;;;29.73;16.48;;;4.90;90.80;;;;;;4975110;28;20145;-78
2022/12/18 15:35:23;;;;;;;18.05;10.13;;;4.90;90.70;;;;;;4959831;28;20053;-78
2022/12/18 15:37:51;;;;;;;22.88;13.25;;;5.00;90.70;;;;;;4959166;28;20479;-78
2022/12/18 15:40:22;;;;;;;28.13;13.25;;;5.00;90.60;;;;;;4958480;28;20023;-78
2022/12/18 15:45:33;;;;;;;21.38;12.13;;;5.20;90.60;;;;;;4959367;29;20059;-79
2022/12/18 15:47:59;;;;;;;17.17;10.32;;;5.30;90.60;;;;;;4958969;28;20020;-78
2022/12/18 15:50:25;;;;;;;16.33;9.73;;;5.30;90.80;;;;;;4957551;29;20118;-78
2022/12/18 15:52:53;;;;;;;32.88;14.88;;;5.40;90.80;;;;;;4958322;28;20023;-78
2022/12/18 15:58:10;;;;;;;22.63;12.40;;;5.50;90.70;;;;;;4958690;28;20051;-78
2022/12/18 16:00:39;;;;;;;12.48;9.70;;;5.50;90.50;;;;;;4957785;29;20115;-78
2022/12/18 16:03:05;;;;;;;20.95;11.65;;;5.60;90.70;;;;;;4958646;28;20106;-78
2022/12/18 16:05:31;;;;;;;17.90;12.63;;;5.60;90.60;;;;;;4958430;28;20444;-78
2022/12/18 16:07:57;;;;;;;19.92;13.40;;;5.60;90.50;;;;;;4958573;29;20020;-78
2022/12/18 16:10:24;;;;;;;16.48;8.05;;;5.70;90.60;;;;;;4963527;28;20081;-77
2022/12/18 16:12:51;;;;;;;17.98;9.75;;;5.70;90.60;;;;;;4996250;28;20047;-78
2022/12/18 16:15:17;;;;;;;20.63;10.40;;;5.70;90.50;;;;;;4976865;28;20030;-78
2022/12/18 16:17:44;;;;;;;14.77;7.85;;;5.80;90.60;;;;;;4976102;28;20027;-77
2022/12/18 16:20:17;;;;;;;15.45;8.18;;;5.80;90.60;;;;;;4976886;28;20019;-78
2022/12/18 16:22:45;;;;;;;16.35;9.15;;;5.90;90.60;;;;;;4965649;28;20035;-78
2022/12/18 16:25:24;;;;;;;16.20;8.32;;;6.00;90.50;;;;;;4968583;28;20027;-78
2022/12/18 16:27:51;;;;;;;19.67;11.27;;;6.00;90.50;;;;;;4958332;28;20491;-78
2022/12/18 16:30:27;;;;;;;8.40;7.20;;;6.10;90.60;;;;;;4956808;29;20030;-78
2022/12/18 16:32:56;;;;;;;14.98;7.32;;;6.20;90.70;;;;;;4964839;28;20027;-78
2022/12/18 16:35:23;;;;;;;14.48;9.50;;;6.20;90.60;;;;;;4957899;28;20023;-78
2022/12/18 16:37:49;;;;;;;14.30;6.55;;;6.30;90.50;;;;;;4955898;28;20038;-79
2022/12/18 16:40:16;;;;;;;13.95;8.82;;;6.30;90.40;;;;;;4956566;29;20118;-78
2022/12/18 16:42:44;;;;;;;19.20;9.05;;;6.20;90.70;;;;;;4958095;28;20023;-78
2022/12/18 16:45:13;;;;;;;16.20;9.48;;;6.30;90.60;;;;;;4957758;28;20031;-78
2022/12/18 16:47:39;;;;;;;14.23;9.20;;;6.30;90.40;;;;;;4958102;28;20046;-78
2022/12/18 16:50:06;;;;;;;13.05;6.95;;;6.40;90.30;;;;;;4957378;28;20027;-78
2022/12/18 16:52:31;;;;;;;10.75;7.18;;;6.40;90.60;;;;;;4957319;28;20180;-78
2022/12/18 16:54:57;;;;;;;17.50;10.20;;;6.40;90.70;;;;;;4970505;28;20092;-78
2022/12/18 16:57:23;;;;;;;15.93;8.70;;;6.40;90.40;;;;;;4957371;29;20094;-78
2022/12/18 16:59:49;;;;;;;12.00;8.20;;;6.50;90.50;;;;;;4957516;28;20035;-78
2022/12/18 17:02:17;;;;;;;14.13;9.38;;;6.50;90.50;;;;;;4968008;28;20046;-78
2022/12/18 17:04:44;;;;;;;9.68;6.78;;;6.60;90.50;;;;;;4967440;28;20031;-78
2022/12/18 17:07:10;;;;;;;9.13;6.35;;;6.60;90.40;;;;;;4977078;28;20019;-78
2022/12/18 17:09:37;;;;;;;9.73;6.47;;;6.60;90.40;;;;;;4959223;28;20515;-78
2022/12/18 17:12:03;;;;;;;8.13;4.93;;;6.70;90.40;;;;;;4975051;28;20027;-78
2022/12/18 17:14:28;;;;;;;13.82;9.05;;;6.70;90.30;;;;;;4956880;28;20085;-78
2022/12/18 17:16:55;;;;;;;12.75;8.52;;;6.70;90.30;;;;;;4958312;28;20031;-78
2022/12/18 17:19:22;;;;;;;13.05;8.38;;;6.70;90.20;;;;;;4957486;28;20110;-78
2022/12/18 17:21:50;;;;;;;15.73;9.13;;;6.80;90.20;;;;;;4957224;28;20043;-78
2022/12/18 17:24:18;;;;;;;19.08;7.47;;;6.80;90.30;;;;;;4977147;28;20049;-78
2022/12/18 17:26:45;;;;;;;13.48;8.60;;;6.80;90.20;;;;;;4971070;28;20019;-78
2022/12/18 17:29:16;;;;;;;6.20;5.05;;;6.80;90.20;;;;;;4976459;28;20549;-80
2022/12/18 17:31:42;;;;;;;6.03;5.30;;;6.80;90.40;;;;;;4974445;28;20039;-78
2022/12/18 17:34:09;;;;;;;12.95;7.60;;;6.80;90.30;;;;;;4972144;28;20584;-80
2022/12/18 17:36:36;;;;;;;13.63;7.72;;;6.80;90.20;;;;;;4972762;28;20034;-78
2022/12/18 17:39:03;;;;;;;15.25;8.63;;;6.80;90.40;;;;;;4972407;28;20035;-82
2022/12/18 17:41:29;;;;;;;12.57;6.35;;;6.90;90.30;;;;;;4976731;28;20023;-85
2022/12/18 17:44:00;;;;;;;18.40;9.40;;;6.90;90.30;;;;;;4966396;28;20059;-84
2022/12/18 17:46:27;;;;;;;18.33;8.30;;;6.90;90.20;;;;;;4967744;28;20031;-85
2022/12/18 17:48:58;;;;;;;10.25;7.55;;;6.90;90.30;;;;;;4972145;28;20553;-80
2022/12/18 17:51:24;;;;;;;21.30;9.93;;;7.00;90.20;;;;;;4970613;28;20023;-87
2022/12/18 17:53:49;;;;;;;9.85;5.90;;;7.00;90.30;;;;;;4969460;28;20050;-80
2022/12/18 17:56:18;;;;;;;13.38;8.10;;;7.00;90.20;;;;;;4966112;28;20034;-79
2022/12/18 17:58:44;;;;;;;23.65;10.52;;;7.00;90.30;;;;;;4967468;28;20042;-80
2022/12/18 18:01:14;;;;;;;9.10;7.03;;;7.00;90.20;;;;;;4963956;28;20387;-79
2022/12/18 18:04:00;;;;;;;8.47;6.10;;;7.10;90.20;;;;;;4966930;28;20039;-81
2022/12/18 18:06:26;;;;;;;12.80;7.40;;;7.10;90.00;;;;;;4971207;28;20377;-81
2022/12/18 18:08:53;;;;;;;12.70;6.93;;;7.20;90.00;;;;;;4966423;28;20035;-79
2022/12/18 18:14:10;;;;;;;13.32;7.57;;;7.20;90.00;;;;;;4964594;28;20042;-79
2022/12/18 18:16:41;;;;;;;10.27;5.95;;;7.30;89.90;;;;;;4966439;28;20070;-79
2022/12/18 18:19:09;;;;;;;10.02;5.78;;;7.30;89.90;;;;;;4975129;28;20101;-80
2022/12/18 18:21:39;;;;;;;10.50;5.15;;;7.40;90.00;;;;;;4976864;28;20073;-79
2022/12/18 18:24:06;;;;;;;13.00;7.85;;;7.40;89.90;;;;;;4961838;28;20031;-78
2022/12/18 18:26:35;;;;;;;10.07;6.55;;;7.50;89.70;;;;;;4970876;28;20040;-78
2022/12/18 18:29:03;;;;;;;8.05;5.10;;;7.50;89.90;;;;;;4963351;28;20038;-79
2022/12/18 18:31:29;;;;;;;13.10;6.65;;;7.60;89.80;;;;;;4969143;28;20039;-78
2022/12/18 18:33:55;;;;;;;7.35;4.57;;;7.60;89.60;;;;;;4960595;28;20095;-77
2022/12/18 18:36:23;;;;;;;18.52;6.47;;;7.70;89.70;;;;;;4965966;28;20038;-79
2022/12/18 18:38:49;;;;;;;12.02;6.43;;;7.70;89.50;;;;;;4967660;28;20034;-83
2022/12/18 18:41:15;;;;;;;8.80;4.68;;;7.70;89.40;;;;;;4972835;28;20034;-88
2022/12/18 18:43:41;;;;;;;10.18;6.35;;;7.70;89.60;;;;;;4970957;28;20034;-84
2022/12/18 18:46:10;;;;;;;13.07;7.75;;;7.80;89.50;;;;;;4964519;28;20106;-77
2022/12/18 18:48:36;;;;;;;13.82;7.43;;;7.80;89.20;;;;;;4968722;28;20110;-80
2022/12/18 18:51:09;;;;;;;7.15;5.22;;;7.80;89.20;;;;;;4969681;28;20382;-86